createdAt,value
2019-03-22T00:00:59.232Z,13.08
2019-03-22T00:03:32.580Z,14.15
2019-03-22T00:06:05.900Z,15.43
2019-03-22T00:08:39.337Z,13.40
2019-03-22T00:11:12.636Z,13.75
2019-03-22T00:13:46.029Z,14.23
2019-03-22T00:16:19.335Z,13.32
2019-03-22T00:18:53.564Z,15.30
2019-03-22T00:21:27.020Z,13.38
2019-03-22T00:24:00.531Z,15.63
2019-03-22T00:26:33.838Z,14.07
2019-03-22T00:29:07.239Z,13.95
2019-03-22T00:31:40.609Z,14.80
2019-03-22T00:34:16.685Z,14.90
2019-03-22T00:36:50.021Z,15.40
2019-03-22T00:39:23.367Z,16.15
2019-03-22T00:41:56.683Z,17.70
2019-03-22T00:44:30.167Z,15.80
2019-03-22T00:47:03.536Z,18.25
2019-03-22T00:49:37.074Z,17.25
2019-03-22T00:52:10.447Z,15.48
2019-03-22T00:54:44.566Z,16.23
2019-03-22T00:57:28.127Z,17.40
2019-03-22T00:59:53.888Z,17.25
2019-03-22T01:02:27.240Z,17.87
2019-03-22T01:05:01.624Z,18.12
2019-03-22T01:07:34.957Z,18.45
2019-03-22T01:10:10.367Z,16.73
2019-03-22T01:12:43.740Z,20.88
2019-03-22T01:15:17.057Z,20.85
2019-03-22T01:17:50.247Z,21.27
2019-03-22T01:20:23.551Z,21.42
2019-03-22T01:22:57.032Z,21.40
2019-03-22T01:25:30.349Z,20.55
2019-03-22T01:28:03.913Z,21.27
2019-03-22T01:30:37.231Z,19.95
2019-03-22T01:33:10.730Z,24.10
2019-03-22T01:35:43.932Z,24.98
2019-03-22T01:38:17.329Z,20.35
2019-03-22T01:40:50.635Z,21.25
2019-03-22T01:43:23.999Z,22.90
2019-03-22T01:45:57.311Z,22.95
2019-03-22T01:48:32.338Z,21.57
2019-03-22T01:51:05.747Z,23.00
2019-03-22T01:53:39.236Z,23.57
2019-03-22T01:56:12.831Z,24.12
2019-03-22T01:58:45.961Z,23.42
2019-03-22T02:01:19.741Z,22.00
2019-03-22T02:03:53.120Z,24.00
2019-03-22T02:06:28.095Z,20.43
2019-03-22T02:09:01.487Z,24.18
2019-03-22T02:11:36.285Z,24.63
2019-03-22T02:14:11.225Z,26.37
2019-03-22T02:16:44.588Z,25.20
2019-03-22T02:19:17.915Z,25.60
2019-03-22T02:21:51.104Z,23.98
2019-03-22T02:24:24.339Z,24.72
2019-03-22T02:26:57.733Z,25.27
2019-03-22T02:29:31.068Z,24.30
2019-03-22T02:32:04.424Z,23.57
2019-03-22T02:34:37.727Z,25.23
2019-03-22T02:37:11.076Z,25.30
2019-03-22T02:39:44.770Z,25.35
2019-03-22T02:42:19.804Z,23.47
2019-03-22T02:44:53.192Z,27.10
2019-03-22T02:47:26.540Z,25.65
2019-03-22T02:50:00.479Z,23.85
2019-03-22T02:52:34.101Z,24.95
2019-03-22T02:55:08.698Z,23.65
2019-03-22T02:57:43.002Z,23.62
2019-03-22T03:00:17.203Z,25.68
2019-03-22T03:02:50.603Z,26.02
2019-03-22T03:05:23.948Z,24.72
2019-03-22T03:07:57.466Z,26.85
2019-03-22T03:10:30.895Z,26.73
2019-03-22T03:13:04.344Z,24.10
2019-03-22T03:15:38.197Z,24.90
2019-03-22T03:18:11.590Z,23.05
2019-03-22T03:20:44.944Z,26.97
2019-03-22T03:23:18.491Z,25.92
2019-03-22T03:25:52.003Z,25.10
2019-03-22T03:28:36.008Z,25.27
2019-03-22T03:31:00.702Z,22.50
2019-03-22T03:33:34.063Z,22.42
2019-03-22T03:36:07.398Z,24.15
2019-03-22T03:38:40.796Z,23.65
2019-03-22T03:41:14.503Z,23.47
2019-03-22T03:43:47.861Z,21.68
2019-03-22T03:46:21.393Z,21.17
2019-03-22T03:48:54.603Z,21.57
2019-03-22T03:51:28.098Z,19.92
2019-03-22T03:54:01.398Z,19.87
2019-03-22T03:56:34.855Z,20.75
2019-03-22T03:59:08.193Z,19.15
2019-03-22T04:01:41.644Z,20.02
2019-03-22T04:04:15.034Z,16.65
2019-03-22T04:06:48.401Z,16.80
2019-03-22T04:09:21.859Z,17.52
2019-03-22T04:11:55.172Z,17.87
2019-03-22T04:14:28.624Z,17.45
2019-03-22T04:17:02.026Z,15.32
2019-03-22T04:19:35.570Z,15.68
2019-03-22T04:22:08.962Z,15.45
2019-03-22T04:24:43.999Z,15.68
2019-03-22T04:27:17.298Z,15.63
2019-03-22T04:29:50.740Z,15.40
2019-03-22T04:32:24.153Z,14.10
2019-03-22T04:34:57.569Z,14.43
2019-03-22T04:37:30.886Z,14.53
2019-03-22T04:40:21.786Z,12.45
2019-03-22T04:42:55.082Z,12.07
2019-03-22T04:45:29.515Z,13.62
2019-03-22T04:48:15.140Z,14.00
2019-03-22T04:50:50.141Z,14.15
2019-03-22T04:53:23.514Z,13.05
2019-03-22T04:55:59.567Z,11.30
2019-03-22T04:58:33.295Z,13.45
2019-03-22T05:01:06.834Z,10.43
2019-03-22T05:03:40.144Z,10.45
2019-03-22T05:06:13.486Z,11.15
2019-03-22T05:08:46.937Z,10.90
2019-03-22T05:11:20.271Z,11.80
2019-03-22T05:13:53.666Z,10.85
2019-03-22T05:16:27.166Z,10.20
2019-03-22T05:19:00.570Z,11.25
2019-03-22T05:21:33.922Z,9.73
2019-03-22T05:24:08.852Z,10.68
2019-03-22T05:26:42.193Z,11.22
2019-03-22T05:29:15.728Z,10.85
2019-03-22T05:31:57.006Z,8.63
2019-03-22T05:34:31.393Z,8.83
2019-03-22T05:37:04.687Z,9.43
2019-03-22T05:39:38.042Z,9.50
2019-03-22T05:42:12.974Z,9.35
2019-03-22T05:44:46.610Z,9.18
2019-03-22T05:47:22.640Z,10.35
2019-03-22T05:49:56.440Z,10.40
2019-03-22T05:52:29.765Z,8.90
2019-03-22T05:55:04.879Z,9.30
2019-03-22T05:57:38.198Z,9.80
2019-03-22T06:00:11.551Z,10.30
2019-03-22T06:02:44.874Z,10.58
2019-03-22T06:05:18.365Z,10.45
2019-03-22T06:07:51.712Z,9.98
2019-03-22T06:10:25.052Z,11.78
2019-03-22T06:12:58.569Z,10.70
2019-03-22T06:15:31.937Z,10.93
2019-03-22T06:18:05.246Z,10.18
2019-03-22T06:20:38.424Z,11.97
2019-03-22T06:23:11.747Z,12.00
2019-03-22T06:25:45.100Z,14.78
2019-03-22T06:28:18.729Z,16.57
2019-03-22T06:30:53.121Z,14.68
2019-03-22T06:33:26.489Z,19.48
2019-03-22T06:35:59.831Z,15.70
2019-03-22T06:38:33.536Z,17.65
2019-03-22T06:41:06.939Z,18.62
2019-03-22T06:43:40.758Z,14.87
2019-03-22T06:46:14.454Z,18.73
2019-03-22T06:48:48.288Z,18.10
2019-03-22T06:51:21.636Z,22.87
2019-03-22T06:53:55.065Z,20.37
2019-03-22T06:56:28.508Z,16.23
2019-03-22T06:59:02.030Z,18.50
2019-03-22T07:01:35.363Z,17.95
2019-03-22T07:04:09.063Z,14.98
2019-03-22T07:06:42.594Z,18.05
2019-03-22T07:09:16.794Z,18.42
2019-03-22T07:11:50.483Z,20.55
2019-03-22T07:14:23.790Z,17.15
2019-03-22T07:16:58.936Z,19.82
2019-03-22T07:19:33.570Z,17.82
2019-03-22T07:22:08.002Z,24.30
2019-03-22T07:24:41.524Z,20.25
2019-03-22T07:27:16.330Z,20.85
2019-03-22T07:29:50.830Z,21.60
2019-03-22T07:32:24.273Z,24.45
2019-03-22T07:34:58.003Z,28.70
2019-03-22T07:37:31.499Z,26.20
2019-03-22T07:40:05.901Z,25.88
2019-03-22T07:42:39.241Z,23.83
2019-03-22T07:45:12.729Z,25.02
2019-03-22T07:47:46.306Z,27.22
2019-03-22T07:50:20.774Z,24.63
2019-03-22T07:52:55.336Z,24.10
2019-03-22T07:55:28.853Z,24.85
2019-03-22T07:58:02.333Z,23.60
2019-03-22T08:00:35.847Z,24.30
2019-03-22T08:03:09.467Z,29.42
2019-03-22T08:05:50.725Z,23.70
2019-03-22T08:08:18.533Z,24.37
2019-03-22T08:10:51.844Z,24.82
2019-03-22T08:13:25.507Z,27.90
2019-03-22T08:15:59.071Z,24.98
2019-03-22T08:18:32.660Z,23.57
2019-03-22T08:21:06.192Z,24.80
2019-03-22T08:23:39.816Z,25.23
2019-03-22T08:26:13.282Z,22.67
2019-03-22T08:28:46.794Z,24.85
2019-03-22T08:31:20.146Z,25.50
2019-03-22T08:33:53.641Z,27.65
2019-03-22T08:36:26.919Z,24.30
2019-03-22T08:39:00.272Z,20.65
2019-03-22T08:41:33.663Z,25.48
2019-03-22T08:44:07.138Z,24.65
2019-03-22T08:46:40.599Z,26.15
2019-03-22T08:49:14.047Z,22.55
2019-03-22T08:51:49.819Z,25.90
2019-03-22T08:54:23.261Z,23.02
2019-03-22T08:56:56.758Z,23.75
2019-03-22T08:59:31.399Z,25.30
2019-03-22T09:02:04.692Z,26.37
2019-03-22T09:04:38.049Z,22.50
2019-03-22T09:07:11.418Z,25.65
2019-03-22T09:09:44.858Z,24.37
2019-03-22T09:12:18.361Z,24.57
2019-03-22T09:14:51.860Z,24.10
2019-03-22T09:17:25.273Z,24.90
2019-03-22T09:19:58.817Z,24.90
2019-03-22T09:22:32.136Z,21.15
2019-03-22T09:25:06.013Z,25.48
2019-03-22T09:27:39.310Z,22.30
2019-03-22T09:30:13.837Z,25.82
2019-03-22T09:32:47.245Z,23.12
2019-03-22T09:35:22.313Z,22.48
2019-03-22T09:37:56.021Z,23.15
2019-03-22T09:40:30.583Z,23.85
2019-03-22T09:43:03.903Z,26.40
2019-03-22T09:45:37.322Z,22.87
2019-03-22T09:48:10.692Z,21.25
2019-03-22T09:50:44.038Z,24.92
2019-03-22T09:53:17.448Z,22.62
2019-03-22T09:55:50.791Z,25.10
2019-03-22T09:58:24.250Z,22.27
2019-03-22T10:00:59.135Z,24.75
2019-03-22T10:03:32.456Z,26.45
2019-03-22T10:06:05.885Z,24.47
2019-03-22T10:08:39.335Z,27.02
2019-03-22T10:11:12.863Z,26.52
2019-03-22T10:13:48.309Z,26.97
2019-03-22T10:16:21.361Z,24.90
2019-03-22T10:18:54.720Z,27.37
2019-03-22T10:21:28.215Z,27.17
2019-03-22T10:24:01.566Z,27.15
2019-03-22T10:26:36.590Z,27.40
2019-03-22T10:29:10.380Z,30.25
2019-03-22T10:31:44.217Z,28.30
2019-03-22T10:34:17.508Z,28.40
2019-03-22T10:36:51.091Z,37.20
2019-03-22T10:39:24.388Z,30.82
2019-03-22T10:41:57.794Z,32.17
2019-03-22T10:44:31.270Z,30.72
2019-03-22T10:47:04.638Z,30.48
2019-03-22T10:49:38.260Z,30.92
2019-03-22T10:52:11.694Z,36.28
2019-03-22T10:54:45.401Z,36.40
2019-03-22T10:57:19.180Z,35.35
2019-03-22T10:59:52.608Z,35.98
2019-03-22T11:02:25.956Z,38.78
2019-03-22T11:04:59.583Z,34.98
2019-03-22T11:07:32.930Z,34.08
2019-03-22T11:10:08.606Z,42.17
2019-03-22T11:12:43.038Z,40.55
2019-03-22T11:15:17.967Z,35.15
2019-03-22T11:17:51.454Z,35.00
2019-03-22T11:20:24.768Z,38.98
2019-03-22T11:22:58.112Z,34.85
2019-03-22T11:25:31.431Z,38.23
2019-03-22T11:28:04.776Z,38.70
2019-03-22T11:30:39.864Z,38.98
2019-03-22T11:33:13.372Z,39.55
2019-03-22T11:35:46.687Z,38.98
2019-03-22T11:38:19.861Z,37.90
2019-03-22T11:40:55.528Z,41.70
2019-03-22T11:43:29.094Z,39.67
2019-03-22T11:46:02.262Z,33.28
2019-03-22T11:48:37.241Z,36.55
2019-03-22T11:51:10.589Z,38.40
2019-03-22T11:53:44.069Z,34.78
2019-03-22T11:56:17.589Z,37.38
2019-03-22T11:58:50.900Z,36.00
2019-03-22T12:01:24.244Z,47.50
2019-03-22T12:03:57.588Z,50.10
2019-03-22T12:06:30.931Z,55.50
2019-03-22T12:09:06.096Z,56.05
2019-03-22T12:11:39.471Z,56.28
2019-03-22T12:14:13.065Z,60.35
2019-03-22T12:16:46.570Z,61.28
2019-03-22T12:19:19.948Z,59.77
2019-03-22T12:21:53.431Z,58.13
2019-03-22T12:24:26.928Z,57.05
2019-03-22T12:27:00.901Z,58.38
2019-03-22T12:29:35.038Z,58.98
2019-03-22T12:32:08.427Z,62.90
2019-03-22T12:34:41.738Z,56.88
2019-03-22T12:37:15.183Z,52.13
2019-03-22T12:39:48.658Z,55.95
2019-03-22T12:42:22.056Z,55.38
2019-03-22T12:44:55.508Z,54.83
2019-03-22T12:47:28.857Z,54.20
2019-03-22T12:50:02.213Z,57.27
2019-03-22T12:52:35.654Z,58.05
2019-03-22T12:55:10.335Z,52.70
2019-03-22T12:57:43.685Z,49.63
2019-03-22T13:00:22.203Z,48.73
2019-03-22T13:02:55.662Z,55.38
2019-03-22T13:05:29.034Z,45.65
2019-03-22T13:08:02.579Z,42.75
2019-03-22T13:10:36.238Z,42.88
2019-03-22T13:13:09.724Z,44.90
2019-03-22T13:15:43.090Z,41.18
2019-03-22T13:18:17.995Z,35.48
2019-03-22T13:20:51.345Z,35.00
2019-03-22T13:23:25.187Z,35.10
2019-03-22T13:25:58.461Z,35.35
2019-03-22T13:28:31.940Z,32.98
2019-03-22T13:31:05.440Z,33.42
2019-03-22T13:33:38.984Z,31.02
2019-03-22T13:36:12.361Z,27.70
2019-03-22T13:38:45.744Z,28.02
2019-03-22T13:41:19.266Z,26.27
2019-03-22T13:43:52.603Z,27.80
2019-03-22T13:46:25.795Z,20.88
2019-03-22T13:48:59.269Z,20.37
2019-03-22T13:51:32.606Z,27.65
2019-03-22T13:54:06.118Z,22.02
2019-03-22T13:56:39.670Z,20.32
2019-03-22T13:59:13.314Z,22.87
2019-03-22T14:01:47.016Z,21.90
2019-03-22T14:04:20.334Z,19.67
2019-03-22T14:06:53.670Z,20.77
2019-03-22T14:09:27.011Z,21.40
2019-03-22T14:12:00.329Z,19.80
2019-03-22T14:14:33.480Z,19.87
2019-03-22T14:17:08.419Z,21.77
2019-03-22T14:19:41.811Z,14.33
2019-03-22T14:22:16.131Z,14.30
2019-03-22T14:24:49.565Z,13.53
2019-03-22T14:27:23.016Z,16.15
2019-03-22T14:29:56.201Z,14.85
2019-03-22T14:32:29.601Z,15.03
2019-03-22T14:35:04.506Z,15.75
2019-03-22T14:37:38.491Z,17.90
2019-03-22T14:40:15.581Z,13.10
2019-03-22T14:42:46.861Z,13.15
2019-03-22T14:45:20.267Z,16.77
2019-03-22T14:47:53.762Z,12.95
2019-03-22T14:50:27.112Z,13.55
2019-03-22T14:53:00.520Z,13.38
2019-03-22T14:55:33.923Z,11.93
2019-03-22T14:58:07.277Z,12.37
2019-03-22T15:00:40.801Z,14.53
2019-03-22T15:03:22.347Z,12.23
2019-03-22T15:05:50.582Z,14.18
2019-03-22T15:08:23.941Z,13.93
2019-03-22T15:10:57.166Z,13.03
2019-03-22T15:13:30.713Z,14.13
2019-03-22T15:16:04.365Z,15.20
2019-03-22T15:18:37.836Z,15.05
2019-03-22T15:21:11.263Z,11.08
2019-03-22T15:23:48.184Z,12.98
2019-03-22T15:26:22.009Z,13.85
2019-03-22T15:28:57.094Z,12.95
2019-03-22T15:31:30.830Z,16.85
2019-03-22T15:34:04.847Z,12.20
2019-03-22T15:36:39.944Z,14.90
2019-03-22T15:39:17.848Z,12.98
2019-03-22T15:41:53.131Z,14.03
2019-03-22T15:44:26.985Z,13.38
2019-03-22T15:47:01.952Z,10.63
2019-03-22T15:49:37.407Z,14.68
2019-03-22T15:52:11.138Z,13.35
2019-03-22T15:54:44.993Z,15.40
2019-03-22T15:57:18.530Z,14.73
2019-03-22T15:59:51.864Z,18.87
2019-03-22T16:02:25.262Z,16.30
2019-03-22T16:04:58.943Z,18.85
2019-03-22T16:07:32.323Z,18.62
2019-03-22T16:10:09.812Z,15.60
2019-03-22T16:12:43.780Z,17.27
2019-03-22T16:15:17.495Z,15.28
2019-03-22T16:17:51.022Z,18.57
2019-03-22T16:20:24.442Z,15.55
2019-03-22T16:22:57.859Z,19.45
2019-03-22T16:25:31.172Z,14.40
2019-03-22T16:28:04.612Z,18.37
2019-03-22T16:30:38.061Z,19.15
2019-03-22T16:33:11.410Z,16.93
2019-03-22T16:35:45.047Z,20.23
2019-03-22T16:38:20.016Z,20.30
2019-03-22T16:40:53.334Z,16.55
2019-03-22T16:43:26.728Z,15.83
2019-03-22T16:46:00.127Z,17.00
2019-03-22T16:48:33.609Z,20.80
2019-03-22T16:51:06.950Z,19.40
2019-03-22T16:53:40.507Z,25.10
2019-03-22T16:56:13.923Z,17.20
2019-03-22T16:58:47.383Z,16.95
2019-03-22T17:01:20.701Z,16.70
2019-03-22T17:04:04.147Z,20.15
2019-03-22T17:06:30.766Z,19.60
2019-03-22T17:09:05.511Z,19.52
2019-03-22T17:11:38.914Z,20.88
2019-03-22T17:14:13.926Z,18.37
2019-03-22T17:16:47.291Z,16.67
2019-03-22T17:19:20.646Z,16.00
2019-03-22T17:21:54.036Z,19.07
2019-03-22T17:24:28.041Z,18.60
2019-03-22T17:27:01.434Z,17.65
2019-03-22T17:29:34.776Z,16.35
2019-03-22T17:32:08.278Z,18.92
2019-03-22T17:34:42.127Z,14.07
2019-03-22T17:37:15.726Z,16.25
2019-03-22T17:39:49.212Z,16.37
2019-03-22T17:42:22.629Z,16.97
2019-03-22T17:44:55.930Z,17.17
2019-03-22T17:47:29.302Z,21.35
2019-03-22T17:50:04.181Z,18.25
2019-03-22T17:52:37.537Z,19.27
2019-03-22T17:55:10.854Z,21.40
2019-03-22T17:57:44.199Z,21.85
2019-03-22T18:00:18.783Z,24.15
2019-03-22T18:02:52.219Z,23.40
2019-03-22T18:05:25.557Z,24.07
2019-03-22T18:07:58.910Z,25.50
2019-03-22T18:10:32.278Z,23.77
2019-03-22T18:13:05.597Z,27.35
2019-03-22T18:15:38.912Z,26.33
2019-03-22T18:18:12.257Z,25.68
2019-03-22T18:20:45.601Z,30.85
2019-03-22T18:23:19.282Z,27.02
2019-03-22T18:25:52.662Z,35.15
2019-03-22T18:28:25.996Z,28.52
2019-03-22T18:30:59.466Z,30.17
2019-03-22T18:33:32.842Z,31.52
2019-03-22T18:36:06.232Z,31.75
2019-03-22T18:38:39.584Z,28.47
2019-03-22T18:41:13.959Z,27.73
2019-03-22T18:43:47.400Z,34.27
2019-03-22T18:46:20.805Z,31.62
2019-03-22T18:48:54.371Z,28.87
2019-03-22T18:51:27.711Z,32.60
2019-03-22T18:54:01.192Z,31.23
2019-03-22T18:56:34.560Z,31.60
2019-03-22T18:59:08.120Z,32.35
2019-03-22T19:01:41.507Z,33.23
2019-03-22T19:04:16.208Z,32.88
2019-03-22T19:06:49.644Z,30.50
2019-03-22T19:09:23.005Z,33.50
2019-03-22T19:11:56.631Z,35.95
2019-03-22T19:14:30.188Z,33.60
2019-03-22T19:17:03.598Z,31.85
2019-03-22T19:19:37.069Z,32.88
2019-03-22T19:22:10.505Z,35.05
2019-03-22T19:24:43.849Z,34.00
2019-03-22T19:27:17.172Z,36.03
2019-03-22T19:29:50.518Z,34.65
2019-03-22T19:32:24.005Z,35.50
2019-03-22T19:34:57.424Z,35.58
2019-03-22T19:37:30.881Z,33.63
2019-03-22T19:40:06.996Z,34.58
2019-03-22T19:42:40.215Z,36.17
2019-03-22T19:45:14.090Z,33.90
2019-03-22T19:47:49.084Z,37.58
2019-03-22T19:50:22.628Z,38.13
2019-03-22T19:52:56.225Z,36.70
2019-03-22T19:55:29.604Z,39.08
2019-03-22T19:58:02.919Z,37.53
2019-03-22T20:00:36.276Z,34.65
2019-03-22T20:03:10.143Z,42.62
2019-03-22T20:05:43.496Z,41.83
2019-03-22T20:08:16.811Z,36.98
2019-03-22T20:10:50.206Z,37.75
2019-03-22T20:13:23.526Z,39.88
2019-03-22T20:15:56.883Z,38.63
2019-03-22T20:18:30.218Z,38.53
2019-03-22T20:21:03.574Z,40.65
2019-03-22T20:23:36.967Z,38.98
2019-03-22T20:26:10.307Z,39.30
2019-03-22T20:28:43.800Z,37.28
2019-03-22T20:31:17.217Z,36.35
2019-03-22T20:33:52.177Z,42.48
2019-03-22T20:36:26.076Z,42.20
2019-03-22T20:38:59.411Z,41.18
2019-03-22T20:41:32.815Z,39.50
2019-03-22T20:44:06.180Z,47.23
2019-03-22T20:46:39.652Z,42.73
2019-03-22T20:49:13.145Z,44.65
2019-03-22T20:51:46.837Z,46.75
2019-03-22T20:54:20.176Z,45.83
2019-03-22T20:56:53.704Z,46.63
2019-03-22T20:59:27.019Z,42.55
2019-03-22T21:02:00.608Z,48.70
2019-03-22T21:04:35.227Z,53.17
2019-03-22T21:07:08.671Z,53.83
2019-03-22T21:09:42.052Z,49.18
2019-03-22T21:12:15.592Z,48.80
2019-03-22T21:14:49.015Z,52.33
2019-03-22T21:17:22.397Z,47.03
2019-03-22T21:19:56.128Z,50.48
2019-03-22T21:22:29.438Z,47.15
2019-03-22T21:25:04.971Z,49.00
2019-03-22T21:27:38.264Z,43.17
2019-03-22T21:30:14.889Z,46.05
2019-03-22T21:32:48.224Z,43.35
2019-03-22T21:35:23.029Z,43.80
2019-03-22T21:37:56.637Z,40.33
2019-03-22T21:40:29.942Z,44.30
2019-03-22T21:43:03.407Z,43.50
2019-03-22T21:45:36.925Z,45.85
2019-03-22T21:48:10.811Z,46.18
2019-03-22T21:50:44.510Z,44.60
2019-03-22T21:53:19.574Z,43.90
2019-03-22T21:55:54.257Z,45.58
2019-03-22T21:58:27.769Z,40.70
2019-03-22T22:01:01.089Z,42.05
2019-03-22T22:03:34.519Z,46.10
2019-03-22T22:06:07.854Z,45.55
2019-03-22T22:08:41.334Z,49.80
2019-03-22T22:11:14.838Z,48.73
2019-03-22T22:13:48.476Z,47.40
2019-03-22T22:16:21.813Z,49.15
2019-03-22T22:18:56.946Z,42.17
2019-03-22T22:21:30.322Z,41.18
2019-03-22T22:24:03.891Z,45.98
2019-03-22T22:26:38.311Z,44.18
2019-03-22T22:29:12.166Z,40.10
2019-03-22T22:31:46.963Z,40.30
2019-03-22T22:34:20.354Z,37.08
2019-03-22T22:36:55.333Z,43.60
2019-03-22T22:39:28.900Z,41.20
2019-03-22T22:42:02.321Z,37.88
2019-03-22T22:44:36.126Z,41.58
2019-03-22T22:47:09.515Z,40.52
2019-03-22T22:49:43.163Z,39.38
2019-03-22T22:52:16.659Z,40.15
2019-03-22T22:54:50.290Z,39.00
2019-03-22T22:57:23.622Z,41.73
2019-03-22T22:59:56.986Z,43.50
2019-03-22T23:02:30.517Z,45.33
2019-03-22T23:05:05.360Z,42.33
2019-03-22T23:07:39.156Z,41.48
2019-03-22T23:10:12.814Z,39.67
2019-03-22T23:12:46.413Z,37.85
2019-03-22T23:15:19.543Z,36.15
2019-03-22T23:17:53.023Z,38.48
2019-03-22T23:20:26.316Z,33.78
2019-03-22T23:22:59.737Z,36.93
2019-03-22T23:25:33.292Z,31.93
2019-03-22T23:28:06.942Z,30.43
2019-03-22T23:30:40.382Z,31.05
2019-03-22T23:33:15.431Z,32.80
2019-03-22T23:35:49.028Z,28.92
2019-03-22T23:38:23.539Z,28.20
2019-03-22T23:40:57.138Z,27.90
2019-03-22T23:43:31.710Z,30.35
2019-03-22T23:46:05.454Z,29.75
2019-03-22T23:48:38.776Z,27.40
2019-03-22T23:51:12.093Z,26.37
2019-03-22T23:53:45.468Z,25.45
2019-03-22T23:56:18.847Z,25.32
2019-03-22T23:58:52.297Z,23.92
